D/T METAR WX W/DIR W/SPE G/SPE TEMP DEWP
5/06/20 05:50 EGPK 050450Z 35004KT 310V030 9999 FEW030 08/05 Q0998 N (350°) 4.6mph 8°C 5°C
5/06/20 04:50 EGPK 050350Z VRB03KT 9999 FEW015 SCT035 BKN042 07/05 Q0998 N (0°) 3.5mph 7°C 5°C
5/06/20 03:50 EGPK 050250Z 32008KT 9999 FEW015 SCT027 BKN048 08/06 Q0998 NW (320°) 9.2mph 8°C 6°C
5/06/20 02:50 EGPK 050150Z 00000KT 9999 FEW025 SCT039 BKN048 08/07 Q0998 N (0°) 8°C 7°C
5/06/20 01:50 EGPK 050050Z 32002KT 9999 -RA FEW025 BKN048 08/07 Q0999 -RA NW (320°) 2.3mph 8°C 7°C
5/06/20 00:50 EGPK 042350Z 35002KT 9999 FEW025 BKN048 09/06 Q0999 N (350°) 2.3mph 9°C 6°C
5/06/20 00:20 EGPK 042320Z 00000KT 9999 FEW025 BKN048 08/06 Q0999 N (0°) 8°C 6°C
4/06/20 23:50 EGPK 042250Z 00000KT 9999 FEW026 BKN046 09/06 Q1000 N (0°) 9°C 6°C
4/06/20 22:50 EGPK 042150Z 04004KT 9999 SCT026 SCT042 09/06 Q1000 NE (40°) 4.6mph 9°C 6°C
4/06/20 22:20 EGPK 042120Z 05008KT 9999 SCT026 SCT042 09/06 Q1000 NE (50°) 9.2mph 9°C 6°C
4/06/20 21:50 EGPK 042050Z 05008KT 9999 FEW012 SCT028 10/07 Q0999 NE (50°) 9.2mph 10°C 7°C
4/06/20 20:50 EGPK 041950Z 36005KT 280V050 9999 SCT028 13/07 Q0999 N (360°) 5.8mph 13°C 7°C
4/06/20 20:20 EGPK 041920Z 31011KT 9999 SCT028 12/07 Q0999 NW (310°) 12.7mph 12°C 7°C
4/06/20 19:50 EGPK 041850Z 30013KT 9999 SCT030 12/07 Q0999 WNW (300°) 15.0mph 12°C 7°C
4/06/20 19:20 EGPK 041820Z 31014KT 9999 SCT030 13/07 Q0999 NW (310°) 16.1mph 13°C 7°C
4/06/20 18:50 EGPK 041750Z 30016KT 9999 SCT029 13/07 Q0999 WNW (300°) 18.4mph 13°C 7°C
4/06/20 18:20 EGPK 041720Z 30016KT 9999 SCT029 13/07 Q0999 WNW (300°) 18.4mph 13°C 7°C
4/06/20 17:50 EGPK 041650Z 30017KT 9999 SCT028 13/07 Q0999 WNW (300°) 19.6mph 13°C 7°C
4/06/20 17:20 EGPK 041620Z 30017KT 9999 SCT028 14/08 Q1000 WNW (300°) 19.6mph 14°C 8°C
4/06/20 16:50 EGPK 041550Z 30016KT 9999 SCT030 14/08 Q1000 WNW (300°) 18.4mph 14°C 8°C
4/06/20 16:20 EGPK 041520Z 29015KT 9999 SCT030 15/08 Q1000 WNW (290°) 17.3mph 15°C 8°C
4/06/20 15:50 EGPK 041450Z 29016KT 9999 FEW019 SCT031 14/09 Q1000 WNW (290°) 18.4mph 14°C 9°C
4/06/20 15:20 EGPK 041420Z 30013KT 9999 FEW019 SCT031 13/08 Q1001 WNW (300°) 15.0mph 13°C 8°C
4/06/20 14:50 EGPK 041350Z 28006KT 240V310 9999 FEW020 SCT030 14/08 Q1001 W (280°) 6.9mph 14°C 8°C
4/06/20 14:20 EGPK 041320Z 26007KT 9999 FEW020 SCT030 14/08 Q1001 W (260°) 8.1mph 14°C 8°C
4/06/20 13:50 EGPK 041250Z 29007KT 250V310 9999 VCSH FEW020 SCT028 14/09 Q1002 VCSH WNW (290°) 8.1mph 14°C 9°C
4/06/20 13:20 EGPK 041220Z 27008KT 9999 VCSH SCT014 BKN025 13/09 Q1002 VCSH W (270°) 9.2mph 13°C 9°C
4/06/20 12:20 EGPK 041120Z 25009KT 9999 VCSH SCT014 BKN025 12/10 Q1003 VCSH WSW (250°) 10.4mph 12°C 10°C
4/06/20 11:50 EGPK 041050Z 26008KT 220V290 9999 -SHRA SCT014 BKN025 13/09 Q1003 -SHRA W (260°) 9.2mph 13°C 9°C
4/06/20 11:20 EGPK 041020Z 26007KT 220V290 9999 VCSH SCT014 BKN025 13/08 Q1003 VCSH W (260°) 8.1mph 13°C 8°C
4/06/20 10:50 EGPK 040950Z 25008KT 210V280 9999 VCSH FEW012 SCT016 BKN030 12/08 Q1004 VCSH WSW (250°) 9.2mph 12°C 8°C
4/06/20 10:20 EGPK 040920Z 22004KT 190V250 9999 VCSH FEW012 SCT016 BKN030 11/08 Q1004 VCSH SW (220°) 4.6mph 11°C 8°C
4/06/20 09:50 EGPK 040850Z 22005KT 9999 -SHRA FEW012 SCT016 BKN030 11/07 Q1004 -SHRA SW (220°) 5.8mph 11°C 7°C
4/06/20 09:20 EGPK 040820Z VRB03KT 9999 VCSH FEW012 SCT016 BKN030 11/07 Q1005 VCSH N (0°) 3.5mph 11°C 7°C
4/06/20 08:50 EGPK 040750Z 25003KT 9999 VCSH FEW025 BKN032 10/06 Q1005 VCSH WSW (250°) 3.5mph 10°C 6°C
4/06/20 08:20 EGPK 040720Z VRB02KT 9999 FEW025 BKN032 10/06 Q1006 N (0°) 2.3mph 10°C 6°C
4/06/20 07:50 EGPK 040650Z 30003KT 9999 FEW035 10/06 Q1006 WNW (300°) 3.5mph 10°C 6°C
4/06/20 07:20 EGPK 040620Z VRB03KT 9999 FEW030 10/04 Q1006 N (0°) 3.5mph 10°C 4°C
4/06/20 06:50 EGPK 040550Z 00000KT 9999 FEW030 10/04 Q1007 N (0°) 10°C 4°C
4/06/20 05:50 EGPK 040450Z 00000KT 9999 FEW030 09/04 Q1007 N (0°) 9°C 4°C
4/06/20 04:50 EGPK 040350Z 00000KT 9999 FEW030 SCT048 08/04 Q1008 N (0°) 8°C 4°C
4/06/20 03:50 EGPK 040250Z VRB03KT 9999 SCT048 08/04 Q1008 N (0°) 3.5mph 8°C 4°C
4/06/20 02:50 EGPK 040150Z 33007KT 9999 SCT048 10/05 Q1009 NNW (330°) 8.1mph 10°C 5°C
4/06/20 01:50 EGPK 040050Z 33007KT 9999 SCT048 10/06 Q1010 NNW (330°) 8.1mph 10°C 6°C
4/06/20 01:20 EGPK 040020Z 33007KT 9999 SCT048 11/06 Q1011 NNW (330°) 8.1mph 11°C 6°C
4/06/20 00:50 EGPK 032350Z 33007KT 9999 SCT048 11/06 Q1011 NNW (330°) 8.1mph 11°C 6°C
4/06/20 00:20 EGPK 032320Z 32007KT 9999 SCT048 11/06 Q1011 NW (320°) 8.1mph 11°C 6°C
3/06/20 23:50 EGPK 032250Z 33008KT 9999 SCT047 11/06 Q1011 NNW (330°) 9.2mph 11°C 6°C
3/06/20 23:20 EGPK 032220Z 31005KT 9999 SCT047 11/06 Q1012 NW (310°) 5.8mph 11°C 6°C
3/06/20 22:20 EGPK 032120Z 32004KT 9999 SCT047 12/06 Q1012 NW (320°) 4.6mph 12°C 6°C
3/06/20 21:50 EGPK 032050Z 31010KT 9999 BKN047 12/07 Q1013 NW (310°) 11.5mph 12°C 7°C
3/06/20 21:20 EGPK 032020Z 28007KT 9999 SCT047 13/07 Q1013 W (280°) 8.1mph 13°C 7°C
3/06/20 20:50 EGPK 031950Z 00000KT 9999 SCT045 14/05 Q1013 N (0°) 14°C 5°C
3/06/20 20:20 EGPK 031920Z 00000KT 9999 FEW025 SCT040 15/05 Q1013 N (0°) 15°C 5°C
3/06/20 19:50 EGPK 031850Z 00000KT 9999 FEW025 SCT040 15/06 Q1013 N (0°) 15°C 6°C
3/06/20 19:20 EGPK 031820Z VRB03KT 9999 FEW025 SCT040 16/04 Q1013 N (0°) 3.5mph 16°C 4°C
3/06/20 18:20 EGPK 031720Z 30010KT 9999 FEW024 SCT043 15/07 Q1014 WNW (300°) 11.5mph 15°C 7°C
3/06/20 17:50 EGPK 031650Z 30011KT 9999 FEW027 SCT046 15/06 Q1014 WNW (300°) 12.7mph 15°C 6°C
3/06/20 17:20 EGPK 031620Z 28012KT 9999 FEW027 SCT046 15/06 Q1014 W (280°) 13.8mph 15°C 6°C
3/06/20 16:50 EGPK 031550Z 28009KT 9999 FEW028 SCT045 16/05 Q1014 W (280°) 10.4mph 16°C 5°C
3/06/20 16:20 EGPK 031520Z 30006KT 200V010 9999 FEW030 SCT042 16/05 Q1014 WNW (300°) 6.9mph 16°C 5°C
3/06/20 15:50 EGPK 031450Z 35006KT 320V020 9999 FEW030 SCT042 16/04 Q1015 N (350°) 6.9mph 16°C 4°C
3/06/20 15:20 EGPK 031420Z 02004KT 350V060 9999 FEW030 BKN045 15/04 Q1015 NNE (20°) 4.6mph 15°C 4°C
3/06/20 14:50 EGPK 031350Z 36005KT 320V060 9999 FEW032 BKN038 15/04 Q1015 N (360°) 5.8mph 15°C 4°C
3/06/20 14:20 EGPK 031320Z 01005KT 330V070 9999 FEW032 BKN038 15/04 Q1016 N (10°) 5.8mph 15°C 4°C
3/06/20 13:50 EGPK 031250Z 36004KT 320V050 9999 FEW032 BKN038 14/04 Q1016 N (360°) 4.6mph 14°C 4°C
3/06/20 13:20 EGPK 031220Z 04004KT 350V090 9999 FEW032 BKN038 14/04 Q1016 NE (40°) 4.6mph 14°C 4°C
3/06/20 12:50 EGPK 031150Z 03007KT 350V060 9999 SCT030 BKN036 14/04 Q1016 NNE (30°) 8.1mph 14°C 4°C
3/06/20 12:20 EGPK 031120Z 05007KT 010V080 9999 SCT030 BKN036 14/04 Q1017 NE (50°) 8.1mph 14°C 4°C
3/06/20 11:50 EGPK 031050Z 05007KT 360V090 9999 BKN028 13/05 Q1017 NE (50°) 8.1mph 13°C 5°C
3/06/20 11:20 EGPK 031020Z 02005KT 330V060 9999 BKN028 13/05 Q1017 NNE (20°) 5.8mph 13°C 5°C
3/06/20 10:50 EGPK 030950Z 03006KT 350V070 9999 FEW020 BKN028 12/05 Q1017 NNE (30°) 6.9mph 12°C 5°C
3/06/20 10:20 EGPK 030920Z 03006KT 350V060 9999 FEW020 BKN028 12/04 Q1017 NNE (30°) 6.9mph 12°C 4°C
3/06/20 09:20 EGPK 030820Z 04008KT 360V070 9999 FEW020 BKN028 12/05 Q1017 NE (40°) 9.2mph 12°C 5°C
3/06/20 08:50 EGPK 030750Z 06011KT 9999 FEW014 SCT020 12/05 Q1017 ENE (60°) 12.7mph 12°C 5°C
3/06/20 08:20 EGPK 030720Z 04009KT 010V080 9999 FEW014 SCT020 11/06 Q1017 NE (40°) 10.4mph 11°C 6°C
3/06/20 07:50 EGPK 030650Z 04006KT 9999 FEW015 SCT035 10/07 Q1017 NE (40°) 6.9mph 10°C 7°C
3/06/20 06:50 EGPK 030550Z 04006KT 360V070 9999 FEW015 SCT035 10/07 Q1017 NE (40°) 6.9mph 10°C 7°C
3/06/20 05:50 EGPK 030450Z 05005KT 9999 FEW015 SCT035 10/07 Q1016 NE (50°) 5.8mph 10°C 7°C
3/06/20 03:50 EGPK 030250Z 06010KT 9999 FEW018 SCT040 11/07 Q1016 ENE (60°) 11.5mph 11°C 7°C
3/06/20 02:50 EGPK 030150Z 06009KT 9999 FEW018 SCT040 12/09 Q1016 ENE (60°) 10.4mph 12°C 9°C
3/06/20 01:50 EGPK 030050Z 07009KT 9999 FEW018 SCT040 12/10 Q1016 ENE (70°) 10.4mph 12°C 10°C
3/06/20 00:50 EGPK 022350Z VRB03KT 9999 FEW022 SCT040 13/12 Q1015 N (0°) 3.5mph 13°C 12°C
3/06/20 00:20 EGPK 022320Z 00000KT 9999 FEW020 SCT042 13/12 Q1015 N (0°) 13°C 12°C
2/06/20 23:50 EGPK 022250Z 00000KT 9999 FEW020 SCT042 13/12 Q1016 N (0°) 13°C 12°C
2/06/20 23:20 EGPK 022220Z VRB03KT 9000 FEW020 SCT042 13/12 Q1016 N (0°) 3.5mph 13°C 12°C
2/06/20 22:20 EGPK 022120Z 01003KT 7000 -RA FEW020 SCT045 14/12 Q1017 -RA N (10°) 3.5mph 14°C 12°C
2/06/20 21:50 EGPK 022050Z 35005KT 7000 -RA FEW020 SCT045 15/12 Q1017 -RA N (350°) 5.8mph 15°C 12°C
2/06/20 21:20 EGPK 022020Z 32009KT 9999 -RA SCT045 16/11 Q1016 -RA NW (320°) 10.4mph 16°C 11°C
2/06/20 20:50 EGPK 021950Z 32010KT 9999 SCT045 17/09 Q1016 NW (320°) 11.5mph 17°C 9°C
2/06/20 20:20 EGPK 021920Z 27006KT 9999 SCT045 16/11 Q1016 W (270°) 6.9mph 16°C 11°C
2/06/20 19:50 EGPK 021850Z 27006KT 9999 SCT045 17/11 Q1016 W (270°) 6.9mph 17°C 11°C
2/06/20 19:20 EGPK 021820Z 27004KT 9999 SCT042 17/11 Q1017 W (270°) 4.6mph 17°C 11°C
2/06/20 18:50 EGPK 021750Z 26004KT 9999 SCT042 17/11 Q1017 W (260°) 4.6mph 17°C 11°C
2/06/20 18:20 EGPK 021720Z 25005KT 9999 SCT042 18/12 Q1017 WSW (250°) 5.8mph 18°C 12°C
2/06/20 17:50 EGPK 021650Z 25006KT 9999 SCT042 17/12 Q1017 WSW (250°) 6.9mph 17°C 12°C